Time;durP1;ratioP1;P1;durP2;ratioP2;P2;SDS_P1;SDS_P2;PMS_P1;PMS_P2;Temp;Humidity;BMP_temperature;BMP_pressure;BME280_temperature;BME280_humidity;BME280_pressure;Samples;Min_cycle;Max_cycle;Signal;HPM_P1;HPM_P2
2024/01/23 00:02:23;;;;;;;18.20;3.92;;;;;;;;;;5035497;28;20033;-56
2024/01/23 00:04:49;;;;;;;11.98;3.90;;;;;;;;;;5032887;28;20050;-56
2024/01/23 00:07:15;;;;;;;18.88;4.00;;;;;;;;;;5038493;28;20444;-55
2024/01/23 00:09:40;;;;;;;15.25;4.57;;;6.80;99.90;;;;;;5044496;28;20052;-57
2024/01/23 00:12:07;;;;;;;20.00;4.13;;;;;;;;;;5037473;28;20133;-57
2024/01/23 00:14:33;;;;;;;14.32;3.45;;;;;;;;;;5039585;28;20037;-56
2024/01/23 00:17:00;;;;;;;23.83;4.35;;;;;;;;;;5037691;28;20036;-55
2024/01/23 00:19:26;;;;;;;17.83;3.50;;;;;;;;;;5040051;28;20090;-57
2024/01/23 00:21:52;;;;;;;17.00;3.47;;;;;;;;;;5032772;28;20041;-53
2024/01/23 00:24:17;;;;;;;18.48;3.80;;;6.90;99.90;;;;;;5038015;28;20053;-56
2024/01/23 00:26:43;;;;;;;18.25;4.43;;;;;;;;;;5037249;28;20039;-58
2024/01/23 00:29:09;;;;;;;19.35;4.32;;;;;;;;;;5036805;28;20116;-57
2024/01/23 00:31:37;;;;;;;17.80;4.22;;;;;;;;;;5029433;28;20033;-56
2024/01/23 00:34:03;;;;;;;19.00;4.05;;;;;;;;;;5015381;28;20052;-56
2024/01/23 00:36:29;;;;;;;14.02;3.67;;;;;;;;;;5041676;28;20357;-58
2024/01/23 00:38:55;;;;;;;16.23;4.35;;;;;;;;;;5038313;28;20041;-57
2024/01/23 00:41:21;;;;;;;23.60;5.10;;;7.00;99.90;;;;;;5036919;28;20033;-57
2024/01/23 00:43:47;;;;;;;24.13;4.88;;;6.90;99.90;;;;;;5045549;28;20408;-58
2024/01/23 00:46:13;;;;;;;12.13;3.92;;;;;;;;;;5031471;28;20116;-58
2024/01/23 00:48:39;;;;;;;16.05;4.32;;;;;;;;;;5039322;28;20067;-57
2024/01/23 00:51:05;;;;;;;16.60;3.65;;;;;;;;;;5032890;28;20052;-57
2024/01/23 00:53:31;;;;;;;27.90;5.00;;;;;;;;;;5045992;28;20046;-57
2024/01/23 00:55:58;;;;;;;17.80;4.22;;;;;;;;;;5018438;28;20053;-56
2024/01/23 00:58:24;;;;;;;16.02;4.45;;;;;;;;;;5036410;28;20045;-57
2024/01/23 01:00:50;;;;;;;19.70;4.28;;;;;;;;;;5035825;28;20116;-57
2024/01/23 01:03:17;;;;;;;14.05;3.20;;;;;;;;;;5047354;28;20143;-57
2024/01/23 01:05:43;;;;;;;21.75;4.93;;;;;;;;;;5039348;28;20045;-57
2024/01/23 01:08:09;;;;;;;18.00;4.45;;;;;;;;;;5038405;28;20491;-56
2024/01/23 01:10:35;;;;;;;21.10;6.03;;;;;;;;;;5044216;28;20416;-56
2024/01/23 01:13:01;;;;;;;24.15;4.20;;;;;;;;;;5030402;28;20048;-55
2024/01/23 01:15:27;;;;;;;24.38;4.70;;;;;;;;;;5030450;28;20041;-57
2024/01/23 01:17:53;;;;;;;19.00;7.03;;;;;;;;;;5039804;28;20073;-55
2024/01/23 01:20:19;;;;;;;30.00;4.57;;;;;;;;;;5037024;28;20041;-57
2024/01/23 01:22:45;;;;;;;23.20;5.93;;;;;;;;;;5038714;28;20102;-56
2024/01/23 01:25:13;;;;;;;19.60;4.10;;;7.10;99.90;;;;;;5015899;28;20029;-57
2024/01/23 01:27:39;;;;;;;19.50;4.90;;;;;;;;;;5035529;28;20136;-55
2024/01/23 01:30:05;;;;;;;23.40;4.60;;;;;;;;;;5030954;28;20046;-56
2024/01/23 01:32:31;;;;;;;29.60;6.80;;;;;;;;;;5029392;28;20064;-58
2024/01/23 01:34:57;;;;;;;20.67;4.50;;;6.50;99.90;;;;;;5037125;28;20037;-54
2024/01/23 01:37:24;;;;;;;16.65;4.07;;;;;;;;;;5034252;28;20400;-58
2024/01/23 01:39:50;;;;;;;23.50;4.80;;;;;;;;;;5035956;28;20550;-55
2024/01/23 01:42:17;;;;;;;21.35;4.00;;;;;;;;;;5031610;28;20080;-55
2024/01/23 01:44:43;;;;;;;18.33;4.70;;;;;;;;;;5032131;28;20041;-56
2024/01/23 01:47:10;;;;;;;22.38;4.57;;;;;;;;;;5033673;28;20033;-56
2024/01/23 01:49:36;;;;;;;19.25;4.50;;;;;;;;;;5033382;28;20068;-56
2024/01/23 01:52:02;;;;;;;20.15;4.68;;;6.20;99.90;;;;;;5036085;28;20037;-56
2024/01/23 01:54:30;;;;;;;24.02;5.72;;;;;;;;;;5035220;28;20052;-56
2024/01/23 01:56:59;;;;;;;18.70;4.38;;;;;;;;;;5039733;28;20110;-57
2024/01/23 01:59:25;;;;;;;17.13;5.35;;;;;;;;;;5031393;28;20041;-56
2024/01/23 02:01:51;;;;;;;18.95;4.20;;;;;;;;;;5035418;28;20048;-56
2024/01/23 02:04:17;;;;;;;22.85;4.65;;;;;;;;;;5038020;28;20366;-56
2024/01/23 02:06:43;;;;;;;22.50;4.40;;;;;;;;;;5038898;28;20084;-56
2024/01/23 02:09:10;;;;;;;26.52;5.30;;;;;;;;;;5044432;28;20033;-56
2024/01/23 02:11:36;;;;;;;25.60;5.97;;;;;;;;;;5053480;28;20040;-56
2024/01/23 02:14:02;;;;;;;22.77;5.18;;;;;;;;;;5037042;28;20037;-57
2024/01/23 02:16:28;;;;;;;19.13;4.75;;;6.40;99.90;;;;;;5045567;28;20088;-55
2024/01/23 02:18:54;;;;;;;24.48;5.50;;;;;;;;;;5039343;28;21950;-57
2024/01/23 02:21:20;;;;;;;17.33;3.88;;;;;;;;;;5025695;28;20116;-57
2024/01/23 02:23:46;;;;;;;17.52;4.95;;;;;;;;;;5019965;28;20047;-55
2024/01/23 02:26:15;;;;;;;24.60;5.28;;;;;;;;;;5033075;28;20116;-55
2024/01/23 02:28:41;;;;;;;18.58;4.32;;;;;;;;;;5035659;28;20176;-56
2024/01/23 02:31:07;;;;;;;23.17;6.50;;;;;;;;;;5026686;28;20124;-56
2024/01/23 02:33:33;;;;;;;20.52;6.30;;;6.70;99.90;;;;;;5032141;28;20037;-56
2024/01/23 02:35:59;;;;;;;29.38;7.35;;;;;;;;;;5031917;28;20033;-56
2024/01/23 02:38:25;;;;;;;21.13;5.97;;;;;;;;;;5025763;28;20124;-56
2024/01/23 02:40:52;;;;;;;21.27;5.90;;;;;;;;;;5026732;28;20064;-55
2024/01/23 02:43:19;;;;;;;22.73;4.53;;;;;;;;;;5027451;28;20080;-56
2024/01/23 02:45:45;;;;;;;22.83;5.30;;;;;;;;;;5028141;28;20177;-55
2024/01/23 02:48:11;;;;;;;17.45;5.28;;;;;;;;;;5023590;28;20574;-57
2024/01/23 02:50:37;;;;;;;23.73;5.15;;;;;;;;;;5026012;28;20037;-56
2024/01/23 02:53:03;;;;;;;23.38;5.88;;;;;;;;;;5026927;28;20033;-56
2024/01/23 02:55:29;;;;;;;23.80;4.80;;;;;;;;;;5032688;28;20044;-56
2024/01/23 02:57:55;;;;;;;21.65;5.53;;;;;;;;;;5027770;28;20120;-56
2024/01/23 03:00:21;;;;;;;24.90;5.63;;;;;;;;;;5034676;28;20045;-57
2024/01/23 03:02:47;;;;;;;23.25;4.32;;;;;;;;;;5040653;28;20072;-56
2024/01/23 03:05:13;;;;;;;32.70;5.93;;;;;;;;;;5034399;28;20041;-57
2024/01/23 03:07:39;;;;;;;24.77;5.90;;;;;;;;;;5030420;28;20452;-57
2024/01/23 03:10:07;;;;;;;18.83;4.28;;;;;;;;;;5037711;28;20051;-57
2024/01/23 03:12:33;;;;;;;20.67;5.07;;;;;;;;;;5041238;28;20553;-57
2024/01/23 03:14:59;;;;;;;21.25;4.80;;;;;;;;;;5039931;28;20040;-57
2024/01/23 03:17:25;;;;;;;21.85;6.13;;;;;;;;;;5032649;28;20037;-57
2024/01/23 03:19:51;;;;;;;25.92;6.43;;;;;;;;;;5038897;28;20091;-58
2024/01/23 03:22:17;;;;;;;20.15;5.15;;;;;;;;;;5045139;28;20095;-56
2024/01/23 03:24:43;;;;;;;25.92;6.03;;;;;;;;;;5040855;28;20076;-57
2024/01/23 03:27:09;;;;;;;24.27;5.28;;;;;;;;;;5039689;28;20117;-57
2024/01/23 03:29:39;;;;;;;24.27;6.63;;;;;;;;;;5037742;28;20083;-56
2024/01/23 03:32:05;;;;;;;21.33;5.75;;;;;;;;;;5043427;28;20046;-54
2024/01/23 03:34:32;;;;;;;21.45;5.38;;;7.30;99.90;;;;;;5044382;28;20045;-57
2024/01/23 03:37:00;;;;;;;26.05;6.30;;;;;;;;;;5037055;28;20091;-58
2024/01/23 03:39:27;;;;;;;18.83;7.45;;;;;;;;;;5035970;28;20090;-58
2024/01/23 03:41:53;;;;;;;25.17;5.35;;;;;;;;;;5046673;28;20041;-57
2024/01/23 03:44:21;;;;;;;24.35;6.10;;;;;;;;;;5039291;28;20044;-55
2024/01/23 03:46:47;;;;;;;25.55;5.05;;;;;;;;;;5041555;28;20523;-57
2024/01/23 03:49:13;;;;;;;24.23;6.07;;;;;;;;;;5037188;28;20164;-58
2024/01/23 03:51:39;;;;;;;22.92;5.15;;;;;;;;;;5036410;28;20140;-58
2024/01/23 03:54:05;;;;;;;24.55;5.97;;;;;;;;;;5015434;28;20051;-56
2024/01/23 03:56:31;;;;;;;23.77;5.25;;;;;;;;;;5032697;28;20046;-57
2024/01/23 03:58:57;;;;;;;25.05;5.13;;;;;;;;;;5039725;28;20033;-55
2024/01/23 04:01:23;;;;;;;30.13;7.50;;;;;;;;;;5035562;28;20029;-58
2024/01/23 04:03:49;;;;;;;23.88;5.80;;;;;;;;;;5033096;28;20497;-56
2024/01/23 04:06:14;;;;;;;27.55;6.40;;;7.50;99.90;;;;;;5040297;28;20044;-57
2024/01/23 04:08:40;;;;;;;26.70;6.22;;;;;;;;;;5039680;28;20063;-58
2024/01/23 04:11:06;;;;;;;26.00;7.25;;;;;;;;;;5040994;28;20041;-58
2024/01/23 04:13:33;;;;;;;24.27;5.65;;;;;;;;;;5040661;28;20171;-55
2024/01/23 04:15:59;;;;;;;23.88;5.47;;;;;;;;;;5039529;28;20480;-58
2024/01/23 04:18:25;;;;;;;35.70;7.07;;;;;;;;;;5035226;28;20420;-57
2024/01/23 04:20:51;;;;;;;30.70;7.15;;;;;;;;;;5040393;28;20520;-58
2024/01/23 04:23:17;;;;;;;21.25;5.47;;;;;;;;;;5038023;28;20045;-57
2024/01/23 04:25:43;;;;;;;24.98;5.20;;;;;;;;;;5035641;28;20102;-55
2024/01/23 04:28:09;;;;;;;16.90;4.75;;;;;;;;;;5037858;28;20040;-55
2024/01/23 04:30:34;;;;;;;23.48;5.70;;;7.40;99.90;;;;;;5033929;28;20036;-54
2024/01/23 04:33:00;;;;;;;21.52;5.68;;;;;;;;;;5036821;28;20032;-58
2024/01/23 04:35:27;;;;;;;22.90;5.90;;;;;;;;;;5035741;28;20041;-55
2024/01/23 04:37:53;;;;;;;30.38;6.25;;;7.30;99.90;;;;;;5036076;28;20045;-57
2024/01/23 04:40:19;;;;;;;27.75;6.95;;;;;;;;;;5038984;28;20514;-58
2024/01/23 04:42:45;;;;;;;21.55;5.70;;;;;;;;;;5035594;28;20128;-58
2024/01/23 04:45:11;;;;;;;37.42;7.07;;;;;;;;;;5038496;28;20040;-56
2024/01/23 04:47:37;;;;;;;37.78;7.97;;;;;;;;;;5039848;28;20566;-58
2024/01/23 04:50:03;;;;;;;24.98;6.13;;;;;;;;;;5047894;28;20412;-57
2024/01/23 04:52:29;;;;;;;24.25;5.28;;;;;;;;;;5043512;28;20380;-58
2024/01/23 04:54:55;;;;;;;29.55;5.75;;;;;;;;;;5014874;28;20044;-57
2024/01/23 04:57:21;;;;;;;19.95;5.07;;;;;;;;;;5033890;28;20041;-54
2024/01/23 04:59:48;;;;;;;37.72;6.82;;;;;;;;;;5033774;28;21696;-55
2024/01/23 05:02:14;;;;;;;23.70;5.65;;;;;;;;;;5039025;28;20029;-57
2024/01/23 05:04:40;;;;;;;29.27;6.40;;;;;;;;;;5042920;28;20505;-57
2024/01/23 05:07:06;;;;;;;28.40;6.20;;;;;;;;;;5041778;28;20112;-54
2024/01/23 05:09:32;;;;;;;30.67;8.05;;;;;;;;;;5040175;28;20044;-55
2024/01/23 05:11:59;;;;;;;20.20;5.75;;;;;;;;;;5042163;28;20116;-54
2024/01/23 05:14:25;;;;;;;25.48;6.57;;;;;;;;;;5049660;28;20527;-57
2024/01/23 05:16:51;;;;;;;30.35;7.22;;;;;;;;;;5038964;28;20116;-56
2024/01/23 05:19:17;;;;;;;30.42;7.35;;;;;;;;;;5039023;28;20512;-56
2024/01/23 05:21:43;;;;;;;29.55;7.00;;;;;;;;;;5040767;28;20388;-58
2024/01/23 05:24:10;;;;;;;27.75;6.45;;;;;;;;;;5034814;28;20133;-58
2024/01/23 05:26:36;;;;;;;24.17;6.40;;;;;;;;;;5032680;28;20404;-56
2024/01/23 05:29:02;;;;;;;28.65;6.75;;;;;;;;;;5034895;28;20038;-56
2024/01/23 05:31:27;;;;;;;31.55;6.35;;;;;;;;;;5037432;28;20040;-56
2024/01/23 05:33:54;;;;;;;27.88;7.28;;;;;;;;;;5042513;28;20048;-58
2024/01/23 05:36:19;;;;;;;33.50;6.80;;;6.70;99.90;;;;;;5026831;28;20033;-57
2024/01/23 05:38:45;;;;;;;29.77;6.50;;;;;;;;;;5029405;28;20105;-56
2024/01/23 05:41:12;;;;;;;26.48;6.75;;;;;;;;;;5035267;28;20041;-58
2024/01/23 05:43:38;;;;;;;32.35;6.50;;;;;;;;;;5028375;28;20096;-59
2024/01/23 05:46:04;;;;;;;28.73;7.22;;;;;;;;;;5037476;28;20033;-58
2024/01/23 05:48:30;;;;;;;28.98;7.00;;;;;;;;;;5039708;28;20056;-57
2024/01/23 05:50:56;;;;;;;36.63;7.63;;;;;;;;;;5039502;28;20045;-58
2024/01/23 05:53:22;;;;;;;29.55;7.78;;;;;;;;;;5035762;28;20164;-56
2024/01/23 05:55:47;;;;;;;29.55;6.55;;;6.60;99.90;;;;;;5035449;28;20060;-58
2024/01/23 05:58:13;;;;;;;34.10;8.07;;;;;;;;;;5035587;28;20033;-56
2024/01/23 06:00:39;;;;;;;32.10;6.63;;;;;;;;;;5015820;28;20179;-58
2024/01/23 06:03:05;;;;;;;29.05;7.85;;;;;;;;;;5037608;28;20049;-58
2024/01/23 06:05:31;;;;;;;30.30;6.35;;;;;;;;;;5037610;28;20061;-58
2024/01/23 06:07:58;;;;;;;28.25;6.28;;;;;;;;;;5046507;28;20451;-58
2024/01/23 06:10:24;;;;;;;37.25;9.05;;;;;;;;;;5045384;28;20120;-58
2024/01/23 06:12:50;;;;;;;36.38;7.45;;;;;;;;;;5038472;28;20081;-56
2024/01/23 06:15:16;;;;;;;26.48;7.25;;;;;;;;;;5044271;28;20109;-57
2024/01/23 06:17:42;;;;;;;29.73;6.72;;;;;;;;;;5034789;28;20120;-58
2024/01/23 06:20:08;;;;;;;29.35;7.32;;;;;;;;;;5034657;28;20107;-57
2024/01/23 06:22:35;;;;;;;23.65;6.97;;;;;;;;;;5037873;28;20087;-57
2024/01/23 06:25:01;;;;;;;33.35;7.88;;;6.80;99.90;;;;;;5044139;28;20045;-58
2024/01/23 06:27:27;;;;;;;30.88;6.03;;;;;;;;;;5030578;28;20571;-57
2024/01/23 06:29:53;;;;;;;28.52;6.60;;;;;;;;;;5039935;28;20045;-58
2024/01/23 06:32:19;;;;;;;29.50;8.32;;;;;;;;;;5031999;28;20132;-58
2024/01/23 06:34:45;;;;;;;48.83;9.63;;;;;;;;;;5035268;28;20045;-56
2024/01/23 06:37:11;;;;;;;31.00;7.63;;;;;;;;;;5048191;28;20055;-58
2024/01/23 06:39:39;;;;;;;23.17;6.00;;;;;;;;;;5020691;28;20048;-56
2024/01/23 06:42:06;;;;;;;24.95;7.15;;;;;;;;;;5040788;28;20060;-55
2024/01/23 06:44:32;;;;;;;30.15;7.40;;;;;;;;;;5044116;28;20037;-54
2024/01/23 06:46:57;;;;;;;24.50;6.40;;;6.70;99.90;;;;;;5047811;28;20041;-56
2024/01/23 06:51:52;;;;;;;34.78;8.05;;;;;;;;;;4989753;28;20050;-57
2024/01/23 06:54:18;;;;;;;31.55;7.20;;;;;;;;;;4987274;28;20046;-54
2024/01/23 06:56:45;;;;;;;29.45;7.07;;;;;;;;;;4987601;28;20565;-57
2024/01/23 06:59:12;;;;;;;28.58;6.90;;;;;;;;;;4987867;28;20042;-58
2024/01/23 07:01:38;;;;;;;39.88;7.95;;;6.60;99.90;;;;;;4987721;28;20116;-57
2024/01/23 07:04:04;;;;;;;36.90;8.05;;;;;;;;;;4992165;28;20109;-58
2024/01/23 07:06:30;;;;;;;29.40;6.80;;;;;;;;;;4991787;28;20052;-58
2024/01/23 07:08:56;;;;;;;30.15;7.55;;;;;;;;;;4989635;28;20136;-57
2024/01/23 07:11:22;;;;;;;28.02;6.47;;;;;;;;;;4990296;28;20041;-56
2024/01/23 07:13:48;;;;;;;24.98;6.95;;;;;;;;;;4988269;28;20094;-57
2024/01/23 07:16:14;;;;;;;27.02;5.90;;;;;;;;;;4991217;28;20034;-57
2024/01/23 07:18:40;;;;;;;35.38;6.95;;;6.40;99.90;;;;;;4988018;28;20077;-57
2024/01/23 07:21:06;;;;;;;29.00;6.70;;;;;;;;;;4990381;28;20408;-55
2024/01/23 07:23:34;;;;;;;29.10;7.03;;;;;;;;;;4990339;28;20043;-57
2024/01/23 07:26:00;;;;;;;32.53;7.57;;;;;;;;;;4991096;28;20506;-54
2024/01/23 07:28:26;;;;;;;27.48;7.47;;;;;;;;;;4990222;28;20038;-56
2024/01/23 07:30:52;;;;;;;26.70;6.72;;;;;;;;;;4990358;28;20129;-57
2024/01/23 07:33:18;;;;;;;30.45;6.97;;;;;;;;;;4983153;28;20061;-57
2024/01/23 07:35:44;;;;;;;20.90;6.30;;;;;;;;;;4983295;28;20041;-57
2024/01/23 07:38:11;;;;;;;28.42;6.60;;;6.30;99.90;;;;;;4986376;28;20414;-55
2024/01/23 07:40:43;;;;;;;30.75;6.72;;;6.50;99.90;;;;;;4981976;28;20034;-55
2024/01/23 07:43:09;;;;;;;32.53;7.18;;;6.30;99.90;;;;;;4986283;28;20065;-57
2024/01/23 07:45:35;;;;;;;23.48;5.95;;;;;;;;;;4984688;28;20490;-55
2024/01/23 07:48:01;;;;;;;28.83;6.60;;;;;;;;;;4983411;28;20138;-57
2024/01/23 07:50:27;;;;;;;32.60;7.68;;;;;;;;;;4989124;28;20406;-58
2024/01/23 07:52:56;;;;;;;31.75;6.90;;;;;;;;;;4987169;28;20038;-57
2024/01/23 07:55:24;;;;;;;34.65;7.40;;;;;;;;;;4986482;28;20093;-58
2024/01/23 07:57:50;;;;;;;26.63;7.53;;;;;;;;;;4987546;28;20053;-55
2024/01/23 08:00:18;;;;;;;33.10;5.90;;;6.40;99.90;;;;;;4991130;28;20042;-56
2024/01/23 08:02:44;;;;;;;40.13;7.68;;;;;;;;;;4987005;28;20042;-57
2024/01/23 08:05:11;;;;;;;31.88;7.45;;;;;;;;;;4991056;28;20031;-55
2024/01/23 08:07:37;;;;;;;30.75;6.93;;;;;;;;;;4989109;28;20066;-57
2024/01/23 08:10:03;;;;;;;24.85;5.97;;;;;;;;;;4987989;28;20046;-57
2024/01/23 08:12:29;;;;;;;32.38;8.27;;;;;;;;;;4988764;28;20105;-58
2024/01/23 08:14:55;;;;;;;27.38;5.93;;;;;;;;;;4972653;28;20042;-58
2024/01/23 08:17:21;;;;;;;34.10;8.88;;;6.40;99.90;;;;;;4988054;28;20034;-58
2024/01/23 08:19:46;;;;;;;27.63;6.75;;;6.30;99.90;;;;;;4987238;28;20046;-58
2024/01/23 08:22:13;;;;;;;24.85;6.40;;;;;;;;;;4989420;28;20030;-58
2024/01/23 08:24:39;;;;;;;35.58;7.85;;;;;;;;;;4987933;28;20074;-57
2024/01/23 08:27:05;;;;;;;29.42;7.10;;;;;;;;;;4989528;28;20073;-58
2024/01/23 08:29:31;;;;;;;28.52;7.40;;;;;;;;;;4988860;28;20126;-57
2024/01/23 08:31:57;;;;;;;31.23;7.60;;;;;;;;;;4986841;28;20588;-58
2024/01/23 08:34:23;;;;;;;25.15;7.43;;;;;;;;;;4989303;28;20085;-56
2024/01/23 08:36:49;;;;;;;28.45;6.18;;;;;;;;;;4987476;28;20034;-56
2024/01/23 08:39:16;;;;;;;31.60;7.43;;;;;;;;;;4989011;28;20042;-55
2024/01/23 08:41:42;;;;;;;27.02;8.68;;;;;;;;;;4986510;28;20046;-57
2024/01/23 08:44:08;;;;;;;26.67;6.60;;;;;;;;;;4989443;28;20030;-55
2024/01/23 08:46:34;;;;;;;28.30;6.45;;;;;;;;;;4988448;28;20046;-56
2024/01/23 08:49:00;;;;;;;31.10;6.93;;;6.40;99.90;;;;;;4988510;28;20406;-57
2024/01/23 08:51:28;;;;;;;26.20;5.72;;;;;;;;;;4988082;28;20041;-58
2024/01/23 08:53:54;;;;;;;35.88;7.60;;;;;;;;;;4986998;28;20046;-57
2024/01/23 08:56:23;;;;;;;34.50;7.15;;;6.30;99.90;;;;;;4989562;28;20065;-57
2024/01/23 08:58:52;;;;;;;26.33;6.00;;;;;;;;;;4987867;28;20053;-58
2024/01/23 09:01:18;;;;;;;27.40;7.35;;;;;;;;;;4983601;28;20062;-56
2024/01/23 09:03:44;;;;;;;30.45;6.80;;;6.20;99.90;;;;;;4984472;28;20124;-58
2024/01/23 09:06:10;;;;;;;30.88;7.28;;;6.80;99.90;;;;;;4989212;28;20501;-58
2024/01/23 09:08:37;;;;;;;37.17;8.18;;;;;;;;;;4987644;28;20385;-57
2024/01/23 09:11:03;;;;;;;31.25;6.30;;;;;;;;;;4987595;28;20042;-56
2024/01/23 09:13:32;;;;;;;41.40;7.68;;;;;;;;;;4989359;28;20038;-55
2024/01/23 09:15:59;;;;;;;24.30;6.90;;;;;;;;;;4988702;28;20038;-57
2024/01/23 09:18:25;;;;;;;38.35;7.40;;;;;;;;;;4992167;28;20053;-57
2024/01/23 09:20:51;;;;;;;23.40;6.10;;;;;;;;;;4991724;28;20408;-59
2024/01/23 09:23:17;;;;;;;20.38;6.20;;;;;;;;;;4992920;28;20466;-57
2024/01/23 09:25:43;;;;;;;28.52;7.35;;;;;;;;;;4992272;28;20167;-57
2024/01/23 09:28:09;;;;;;;31.05;7.03;;;6.60;99.90;;;;;;4992532;28;20413;-54
2024/01/23 09:30:34;;;;;;;27.92;5.82;;;;;;;;;;4991087;28;20038;-55
2024/01/23 09:33:02;;;;;;;28.95;7.20;;;6.70;99.90;;;;;;4992653;28;20026;-54
2024/01/23 09:35:29;;;;;;;28.65;8.77;;;;;;;;;;4992848;28;20038;-58
2024/01/23 09:37:55;;;;;;;31.30;6.97;;;6.70;99.90;;;;;;4992133;28;20038;-54
2024/01/23 09:40:21;;;;;;;31.25;7.75;;;6.70;99.90;;;;;;4992115;28;20037;-57
2024/01/23 09:42:47;;;;;;;28.73;6.55;;;6.60;99.90;;;;;;4991294;28;20039;-57
2024/01/23 09:45:17;;;;;;;30.35;7.93;;;;;;;;;;4992320;28;20031;-56
2024/01/23 09:47:46;;;;;;;31.90;7.47;;;6.60;99.90;;;;;;4991431;28;20054;-57
2024/01/23 09:50:13;;;;;;;34.75;6.75;;;;;;;;;;4991645;28;20038;-57
2024/01/23 09:52:42;;;;;;;31.27;7.28;;;;;;;;;;4991459;28;20042;-55
2024/01/23 09:55:08;;;;;;;35.38;8.30;;;;;;;;;;4989707;28;20081;-57
2024/01/23 09:57:35;;;;;;;27.50;6.20;;;7.00;99.90;;;;;;4988022;28;20074;-59
2024/01/23 10:00:01;;;;;;;29.52;7.25;;;7.00;99.90;;;;;;4990295;28;20104;-58
2024/01/23 10:02:28;;;;;;;29.05;6.68;;;;;;;;;;4992012;28;20497;-57
2024/01/23 10:04:54;;;;;;;35.75;7.03;;;;;;;;;;4991406;28;20038;-58
2024/01/23 10:07:20;;;;;;;24.63;6.53;;;;;;;;;;4987677;28;20046;-59
2024/01/23 10:09:49;;;;;;;30.67;7.57;;;;;;;;;;4990947;28;20042;-58
2024/01/23 10:12:15;;;;;;;25.38;6.50;;;;;;;;;;4987934;28;20077;-58
2024/01/23 10:14:43;;;;;;;30.90;6.78;;;7.80;99.90;;;;;;4987554;28;20046;-57
2024/01/23 10:17:09;;;;;;;39.08;8.73;;;;;;;;;;4990529;28;20098;-56
2024/01/23 10:19:35;;;;;;;27.98;7.50;;;;;;;;;;4991745;28;20038;-56
2024/01/23 10:22:03;;;;;;;31.15;6.25;;;;;;;;;;4988272;28;20049;-58
2024/01/23 10:24:29;;;;;;;27.88;6.07;;;;;;;;;;4987747;28;20046;-58
2024/01/23 10:26:55;;;;;;;28.75;5.75;;;7.30;99.90;;;;;;4990765;28;20520;-57
2024/01/23 10:29:22;;;;;;;23.30;5.63;;;;;;;;;;4991118;28;20026;-58
2024/01/23 10:31:48;;;;;;;28.95;6.60;;;;;;;;;;4990661;28;20046;-59
2024/01/23 10:34:14;;;;;;;31.48;6.43;;;;;;;;;;4991352;28;20374;-58
2024/01/23 10:36:43;;;;;;;29.73;6.68;;;;;;;;;;4990733;28;20516;-54
2024/01/23 10:39:11;;;;;;;33.78;7.90;;;;;;;;;;4990862;28;20071;-56
2024/01/23 10:41:37;;;;;;;28.73;7.50;;;;;;;;;;4987832;28;20050;-56
2024/01/23 10:44:04;;;;;;;27.23;6.97;;;;;;;;;;4990693;28;20540;-54
2024/01/23 10:46:31;;;;;;;26.60;6.10;;;;;;;;;;4991507;28;20069;-56
2024/01/23 10:48:57;;;;;;;28.23;6.63;;;;;;;;;;4988551;28;20051;-58
2024/01/23 10:51:26;;;;;;;30.98;7.22;;;;;;;;;;4988845;28;20045;-59
2024/01/23 10:53:57;;;;;;;34.17;6.82;;;7.10;99.90;;;;;;4985606;28;20042;-57
2024/01/23 10:56:24;;;;;;;23.42;5.70;;;8.20;99.90;;;;;;4969382;28;20080;-59
2024/01/23 10:59:00;;;;;;;31.20;7.00;;;;;;;;;;4988908;28;20046;-59
2024/01/23 11:01:27;;;;;;;27.88;5.55;;;;;;;;;;4988097;28;20034;-59
2024/01/23 11:03:53;;;;;;;28.10;6.50;;;;;;;;;;4987162;28;20038;-59
2024/01/23 11:06:22;;;;;;;29.23;6.05;;;;;;;;;;4987685;28;20712;-59
2024/01/23 11:08:53;;;;;;;23.60;5.88;;;8.20;99.90;;;;;;4982060;28;20066;-59
2024/01/23 11:11:30;;;;;;;25.45;5.68;;;;;;;;;;4988694;28;20045;-58
2024/01/23 11:14:18;;;;;;;26.88;5.40;;;;;;;;;;4988494;28;20472;-57
2024/01/23 11:17:01;;;;;;;25.55;4.65;;;;;;;;;;4988825;28;20494;-59
2024/01/23 11:19:27;;;;;;;25.00;5.10;;;;;;;;;;4985249;28;20054;-59
2024/01/23 11:22:02;;;;;;;22.48;5.65;;;;;;;;;;4987814;28;20510;-57
2024/01/23 11:24:46;;;;;;;32.65;7.25;;;8.50;99.90;;;;;;4985425;28;20041;-59
2024/01/23 11:27:19;;;;;;;36.55;8.13;;;;;;;;;;4987145;28;20046;-59
2024/01/23 11:29:46;;;;;;;26.60;6.63;;;;;;;;;;4987670;28;20130;-59
2024/01/23 11:32:17;;;;;;;25.52;5.88;;;;;;;;;;4989345;28;20069;-57
2024/01/23 11:34:43;;;;;;;23.08;5.25;;;;;;;;;;4986153;28;20510;-59
2024/01/23 11:37:46;;;;;;;24.25;5.57;;;7.60;99.90;;;;;;4988159;28;20049;-59
2024/01/23 11:40:27;;;;;;;23.27;8.50;;;;;;;;;;4982205;28;20046;-59
2024/01/23 11:42:54;;;;;;;21.80;6.75;;;8.50;99.90;;;;;;4969840;28;20053;-57
2024/01/23 11:45:29;;;;;;;26.38;5.43;;;;;;;;;;4987773;28;20030;-59
2024/01/23 11:47:58;;;;;;;27.63;6.40;;;;;;;;;;4981087;28;20049;-60
2024/01/23 11:50:26;;;;;;;31.75;6.80;;;;;;;;;;4948945;28;1059851;-57
2024/01/23 11:52:53;;;;;;;24.55;4.88;;;;;;;;;;4985753;28;20044;-58
2024/01/23 11:55:19;;;;;;;25.80;6.90;;;;;;;;;;4981532;28;20057;-59
2024/01/23 11:57:49;;;;;;;23.88;5.25;;;;;;;;;;4975007;28;20053;-59
2024/01/23 12:00:15;;;;;;;28.48;5.78;;;;;;;;;;4974974;28;20038;-60
2024/01/23 12:02:43;;;;;;;17.88;5.03;;;;;;;;;;4977682;28;20054;-57
2024/01/23 12:05:09;;;;;;;28.42;5.45;;;;;;;;;;4977990;28;20038;-59
2024/01/23 12:07:37;;;;;;;20.77;6.30;;;;;;;;;;4975982;28;20113;-58
2024/01/23 12:10:10;;;;;;;17.83;5.32;;;;;;;;;;4980645;28;20065;-59
2024/01/23 12:12:37;;;;;;;19.45;5.45;;;;;;;;;;4988748;28;20030;-58
2024/01/23 12:15:06;;;;;;;19.75;5.75;;;;;;;;;;4989167;28;20038;-56
2024/01/23 12:17:33;;;;;;;18.38;5.00;;;;;;;;;;4988349;28;20038;-57
2024/01/23 12:20:02;;;;;;;20.65;4.47;;;;;;;;;;4994364;28;20120;-57
2024/01/23 12:22:28;;;;;;;21.77;4.57;;;10.60;99.90;;;;;;4989028;28;20042;-58
2024/01/23 12:24:54;;;;;;;26.60;5.95;;;;;;;;;;4983139;28;20521;-57
2024/01/23 12:27:20;;;;;;;21.08;5.43;;;;;;;;;;4992405;28;20052;-56
2024/01/23 12:29:46;;;;;;;23.42;4.43;;;;;;;;;;4986072;28;20117;-58
2024/01/23 12:32:12;;;;;;;29.80;6.32;;;;;;;;;;4987855;28;20065;-57
2024/01/23 12:34:39;;;;;;;20.20;5.22;;;10.10;99.90;;;;;;4988718;28;20646;-56
2024/01/23 12:37:05;;;;;;;21.45;6.00;;;;;;;;;;4988686;28;20042;-58
2024/01/23 12:39:31;;;;;;;19.27;5.25;;;;;;;;;;4989269;28;20057;-58
2024/01/23 12:41:57;;;;;;;21.88;5.80;;;9.00;99.90;;;;;;4981844;28;20133;-56
2024/01/23 12:44:24;;;;;;;24.08;4.95;;;;;;;;;;4988176;28;20537;-57
2024/01/23 12:46:53;;;;;;;21.90;4.93;;;;;;;;;;4989184;28;20049;-56
2024/01/23 12:49:19;;;;;;;21.73;6.28;;;;;;;;;;4983251;28;20137;-54
2024/01/23 12:51:51;;;;;;;21.25;5.18;;;;;;;;;;4985244;28;20568;-55
2024/01/23 12:54:17;;;;;;;23.50;5.80;;;8.80;99.90;;;;;;4980159;28;20089;-54
2024/01/23 12:56:43;;;;;;;23.27;4.97;;;;;;;;;;4982035;28;20070;-56
2024/01/23 12:59:09;;;;;;;24.77;5.22;;;;;;;;;;4991323;28;20544;-58
2024/01/23 13:01:35;;;;;;;27.05;5.50;;;;;;;;;;4982919;28;20038;-57
2024/01/23 13:04:01;;;;;;;22.90;5.38;;;;;;;;;;4988232;28;20131;-55
2024/01/23 13:06:28;;;;;;;17.98;5.57;;;;;;;;;;4985902;28;20049;-57
2024/01/23 13:08:54;;;;;;;25.23;6.90;;;;;;;;;;4987404;28;20077;-56
2024/01/23 13:11:20;;;;;;;26.63;5.55;;;;;;;;;;4981881;28;20038;-57
2024/01/23 13:13:48;;;;;;;22.45;4.82;;;;;;;;;;4981929;28;20047;-57
2024/01/23 13:16:14;;;;;;;20.45;5.32;;;;;;;;;;4984196;28;20070;-58
2024/01/23 13:18:41;;;;;;;25.77;5.32;;;;;;;;;;4988368;28;20574;-55
2024/01/23 13:21:07;;;;;;;26.77;6.47;;;;;;;;;;4980021;28;20053;-58
2024/01/23 13:23:33;;;;;;;28.73;5.55;;;8.40;99.90;;;;;;4986565;28;20058;-57
2024/01/23 13:25:59;;;;;;;24.67;6.75;;;;;;;;;;4987163;28;20034;-58
2024/01/23 13:28:25;;;;;;;26.42;5.20;;;;;;;;;;4983874;28;20679;-58
2024/01/23 13:30:51;;;;;;;32.28;5.40;;;8.40;99.90;;;;;;4983333;28;20042;-55
2024/01/23 13:33:18;;;;;;;28.92;5.70;;;;;;;;;;4983625;28;20046;-57
2024/01/23 13:35:44;;;;;;;27.58;6.28;;;8.30;99.90;;;;;;4988200;28;20074;-56
2024/01/23 13:38:10;;;;;;;22.75;5.40;;;;;;;;;;4979603;28;20066;-58
2024/01/23 13:40:37;;;;;;;25.55;6.80;;;;;;;;;;4991200;28;20046;-57
2024/01/23 13:43:03;;;;;;;26.30;6.15;;;;;;;;;;4978578;28;20557;-58
2024/01/23 13:45:29;;;;;;;24.75;5.93;;;;;;;;;;4988594;28;20042;-56
2024/01/23 13:47:56;;;;;;;27.58;5.65;;;;;;;;;;4987624;28;20085;-58
2024/01/23 13:50:23;;;;;;;21.58;5.47;;;;;;;;;;4986210;28;20053;-57
2024/01/23 13:52:49;;;;;;;19.60;4.90;;;;;;;;;;4992400;28;20038;-58
2024/01/23 13:55:16;;;;;;;24.25;5.70;;;;;;;;;;4991457;28;20046;-58
2024/01/23 13:57:42;;;;;;;21.88;5.72;;;;;;;;;;4982676;28;20418;-58
2024/01/23 14:00:12;;;;;;;20.67;5.82;;;7.90;99.90;;;;;;4981845;28;20109;-56
2024/01/23 14:02:41;;;;;;;27.42;6.90;;;7.60;99.90;;;;;;4988286;28;20046;-58
2024/01/23 14:05:07;;;;;;;20.08;5.30;;;7.60;99.90;;;;;;4990739;28;20042;-58
2024/01/23 14:07:34;;;;;;;24.15;5.22;;;;;;;;;;4991814;28;20061;-59
2024/01/23 14:10:00;;;;;;;20.60;5.63;;;;;;;;;;4990196;28;20045;-58
2024/01/23 14:12:26;;;;;;;26.92;6.32;;;;;;;;;;4991239;28;20026;-58